sensor_id;sensor_type;location;lat;lon;timestamp;P1;durP1;ratioP1;P2;durP2;ratioP2
36221;SDS011;22266;52.340;4.962;2022-11-27T00:01:20;11.00;;;8.50;;
36221;SDS011;22266;52.340;4.962;2022-11-27T00:03:48;10.25;;;9.00;;
36221;SDS011;22266;52.340;4.962;2022-11-27T00:06:16;8.00;;;8.00;;
36221;SDS011;22266;52.340;4.962;2022-11-27T00:08:45;10.25;;;9.00;;
36221;SDS011;22266;52.340;4.962;2022-11-27T00:11:13;9.75;;;9.00;;
36221;SDS011;22266;52.340;4.962;2022-11-27T00:13:42;11.50;;;8.25;;
36221;SDS011;22266;52.340;4.962;2022-11-27T00:16:09;9.00;;;8.25;;
36221;SDS011;22266;52.340;4.962;2022-11-27T00:18:35;8.00;;;8.00;;
36221;SDS011;22266;52.340;4.962;2022-11-27T00:21:06;6.00;;;6.00;;
36221;SDS011;22266;52.340;4.962;2022-11-27T00:23:35;7.00;;;7.00;;
36221;SDS011;22266;52.340;4.962;2022-11-27T00:26:02;6.00;;;5.00;;
36221;SDS011;22266;52.340;4.962;2022-11-27T00:28:30;8.75;;;6.50;;
36221;SDS011;22266;52.340;4.962;2022-11-27T00:30:57;8.25;;;8.00;;
36221;SDS011;22266;52.340;4.962;2022-11-27T00:33:28;7.50;;;4.00;;
36221;SDS011;22266;52.340;4.962;2022-11-27T00:35:54;7.00;;;7.00;;
36221;SDS011;22266;52.340;4.962;2022-11-27T00:38:21;10.75;;;8.50;;
36221;SDS011;22266;52.340;4.962;2022-11-27T00:40:47;8.25;;;6.00;;
36221;SDS011;22266;52.340;4.962;2022-11-27T00:43:14;4.50;;;4.50;;
36221;SDS011;22266;52.340;4.962;2022-11-27T00:45:40;8.75;;;7.25;;
36221;SDS011;22266;52.340;4.962;2022-11-27T00:48:07;5.50;;;5.50;;
36221;SDS011;22266;52.340;4.962;2022-11-27T00:50:33;9.75;;;7.50;;
36221;SDS011;22266;52.340;4.962;2022-11-27T00:52:59;9.75;;;8.00;;
36221;SDS011;22266;52.340;4.962;2022-11-27T00:55:26;8.75;;;8.75;;
36221;SDS011;22266;52.340;4.962;2022-11-27T00:57:52;7.50;;;6.50;;
36221;SDS011;22266;52.340;4.962;2022-11-27T01:00:19;9.75;;;6.00;;
36221;SDS011;22266;52.340;4.962;2022-11-27T01:02:45;5.00;;;5.00;;
36221;SDS011;22266;52.340;4.962;2022-11-27T01:05:12;9.25;;;7.50;;
36221;SDS011;22266;52.340;4.962;2022-11-27T01:07:38;6.00;;;6.00;;
36221;SDS011;22266;52.340;4.962;2022-11-27T01:10:05;12.75;;;11.00;;
36221;SDS011;22266;52.340;4.962;2022-11-27T01:12:32;8.25;;;8.00;;
36221;SDS011;22266;52.340;4.962;2022-11-27T01:14:58;5.00;;;5.00;;
36221;SDS011;22266;52.340;4.962;2022-11-27T01:17:25;7.50;;;5.50;;
36221;SDS011;22266;52.340;4.962;2022-11-27T01:19:51;10.50;;;9.00;;
36221;SDS011;22266;52.340;4.962;2022-11-27T01:22:17;7.50;;;5.00;;
36221;SDS011;22266;52.340;4.962;2022-11-27T01:24:44;8.50;;;7.75;;
36221;SDS011;22266;52.340;4.962;2022-11-27T01:27:11;9.00;;;8.50;;
36221;SDS011;22266;52.340;4.962;2022-11-27T01:29:37;9.25;;;7.00;;
36221;SDS011;22266;52.340;4.962;2022-11-27T01:32:04;4.75;;;4.75;;
36221;SDS011;22266;52.340;4.962;2022-11-27T01:34:30;5.75;;;5.75;;
36221;SDS011;22266;52.340;4.962;2022-11-27T01:36:57;4.00;;;4.00;;
36221;SDS011;22266;52.340;4.962;2022-11-27T01:39:23;6.75;;;6.75;;
36221;SDS011;22266;52.340;4.962;2022-11-27T01:41:49;6.00;;;5.25;;
36221;SDS011;22266;52.340;4.962;2022-11-27T01:52:08;7.50;;;6.00;;
36221;SDS011;22266;52.340;4.962;2022-11-27T01:54:42;5.75;;;5.00;;
36221;SDS011;22266;52.340;4.962;2022-11-27T01:57:15;8.50;;;5.50;;
36221;SDS011;22266;52.340;4.962;2022-11-27T01:59:44;5.00;;;4.00;;
36221;SDS011;22266;52.340;4.962;2022-11-27T02:02:13;5.25;;;5.25;;
36221;SDS011;22266;52.340;4.962;2022-11-27T02:04:39;4.00;;;4.00;;
36221;SDS011;22266;52.340;4.962;2022-11-27T02:07:06;9.00;;;7.00;;
36221;SDS011;22266;52.340;4.962;2022-11-27T02:09:32;6.00;;;5.00;;
36221;SDS011;22266;52.340;4.962;2022-11-27T02:12:06;6.50;;;4.75;;
36221;SDS011;22266;52.340;4.962;2022-11-27T02:17:20;4.50;;;4.50;;
36221;SDS011;22266;52.340;4.962;2022-11-27T02:33:55;5.00;;;4.25;;
36221;SDS011;22266;52.340;4.962;2022-11-27T02:36:29;9.00;;;6.75;;
36221;SDS011;22266;52.340;4.962;2022-11-27T02:39:01;7.75;;;6.25;;
36221;SDS011;22266;52.340;4.962;2022-11-27T02:41:36;3.50;;;3.50;;
36221;SDS011;22266;52.340;4.962;2022-11-27T02:44:08;7.00;;;4.50;;
36221;SDS011;22266;52.340;4.962;2022-11-27T02:46:36;6.00;;;4.75;;
36221;SDS011;22266;52.340;4.962;2022-11-27T02:49:05;5.75;;;5.00;;
36221;SDS011;22266;52.340;4.962;2022-11-27T02:51:40;4.25;;;4.25;;
36221;SDS011;22266;52.340;4.962;2022-11-27T02:54:12;5.50;;;5.00;;
36221;SDS011;22266;52.340;4.962;2022-11-27T02:56:44;5.25;;;5.25;;
36221;SDS011;22266;52.340;4.962;2022-11-27T02:59:13;4.00;;;3.50;;
36221;SDS011;22266;52.340;4.962;2022-11-27T03:01:45;5.50;;;5.00;;
36221;SDS011;22266;52.340;4.962;2022-11-27T03:04:19;3.00;;;3.00;;
36221;SDS011;22266;52.340;4.962;2022-11-27T03:09:28;4.00;;;4.00;;
36221;SDS011;22266;52.340;4.962;2022-11-27T03:12:01;4.50;;;2.50;;
36221;SDS011;22266;52.340;4.962;2022-11-27T03:14:30;3.50;;;3.50;;
36221;SDS011;22266;52.340;4.962;2022-11-27T03:19:45;5.50;;;4.25;;
36221;SDS011;22266;52.340;4.962;2022-11-27T03:22:17;4.50;;;2.50;;
36221;SDS011;22266;52.340;4.962;2022-11-27T03:24:45;6.00;;;5.50;;
36221;SDS011;22266;52.340;4.962;2022-11-27T03:27:12;4.50;;;4.00;;
36221;SDS011;22266;52.340;4.962;2022-11-27T03:29:42;4.25;;;4.25;;
36221;SDS011;22266;52.340;4.962;2022-11-27T03:32:12;6.00;;;4.00;;
36221;SDS011;22266;52.340;4.962;2022-11-27T03:34:39;5.00;;;5.00;;
36221;SDS011;22266;52.340;4.962;2022-11-27T03:37:06;4.00;;;4.00;;
36221;SDS011;22266;52.340;4.962;2022-11-27T03:39:33;2.00;;;2.00;;
36221;SDS011;22266;52.340;4.962;2022-11-27T03:47:31;6.75;;;2.25;;
36221;SDS011;22266;52.340;4.962;2022-11-27T03:58:08;4.00;;;4.00;;
36221;SDS011;22266;52.340;4.962;2022-11-27T04:00:40;4.75;;;3.75;;
36221;SDS011;22266;52.340;4.962;2022-11-27T04:03:09;5.25;;;5.25;;
36221;SDS011;22266;52.340;4.962;2022-11-27T04:05:38;6.00;;;5.25;;
36221;SDS011;22266;52.340;4.962;2022-11-27T04:08:04;5.00;;;4.00;;
36221;SDS011;22266;52.340;4.962;2022-11-27T04:10:31;3.50;;;2.50;;
36221;SDS011;22266;52.340;4.962;2022-11-27T04:12:57;2.00;;;2.00;;
36221;SDS011;22266;52.340;4.962;2022-11-27T04:15:24;3.75;;;3.75;;
36221;SDS011;22266;52.340;4.962;2022-11-27T04:17:50;6.00;;;3.50;;
36221;SDS011;22266;52.340;4.962;2022-11-27T04:20:16;8.25;;;2.00;;
36221;SDS011;22266;52.340;4.962;2022-11-27T04:22:43;5.50;;;4.75;;
36221;SDS011;22266;52.340;4.962;2022-11-27T04:25:09;3.00;;;2.50;;
36221;SDS011;22266;52.340;4.962;2022-11-27T04:27:36;4.50;;;4.50;;
36221;SDS011;22266;52.340;4.962;2022-11-27T04:30:03;5.50;;;3.00;;
36221;SDS011;22266;52.340;4.962;2022-11-27T04:32:29;5.75;;;5.00;;
36221;SDS011;22266;52.340;4.962;2022-11-27T04:34:56;3.00;;;3.00;;
36221;SDS011;22266;52.340;4.962;2022-11-27T04:37:22;5.00;;;1.75;;
36221;SDS011;22266;52.340;4.962;2022-11-27T04:39:49;4.25;;;4.00;;
36221;SDS011;22266;52.340;4.962;2022-11-27T04:42:15;6.75;;;4.00;;
36221;SDS011;22266;52.340;4.962;2022-11-27T04:44:41;3.00;;;3.00;;
36221;SDS011;22266;52.340;4.962;2022-11-27T04:47:08;6.50;;;4.25;;
36221;SDS011;22266;52.340;4.962;2022-11-27T04:49:34;4.75;;;3.25;;
36221;SDS011;22266;52.340;4.962;2022-11-27T04:52:01;7.00;;;2.50;;
36221;SDS011;22266;52.340;4.962;2022-11-27T04:54:27;4.00;;;3.50;;
36221;SDS011;22266;52.340;4.962;2022-11-27T04:56:54;1.75;;;1.75;;
36221;SDS011;22266;52.340;4.962;2022-11-27T04:59:20;3.75;;;3.75;;
36221;SDS011;22266;52.340;4.962;2022-11-27T05:01:47;2.50;;;2.50;;
36221;SDS011;22266;52.340;4.962;2022-11-27T05:04:14;5.75;;;4.50;;
36221;SDS011;22266;52.340;4.962;2022-11-27T05:06:40;4.25;;;3.75;;
36221;SDS011;22266;52.340;4.962;2022-11-27T05:09:07;5.00;;;4.00;;
36221;SDS011;22266;52.340;4.962;2022-11-27T05:11:33;3.50;;;3.50;;
36221;SDS011;22266;52.340;4.962;2022-11-27T05:13:59;3.50;;;2.00;;
36221;SDS011;22266;52.340;4.962;2022-11-27T05:16:47;4.50;;;2.00;;
36221;SDS011;22266;52.340;4.962;2022-11-27T05:19:15;5.00;;;5.00;;
36221;SDS011;22266;52.340;4.962;2022-11-27T05:21:43;4.00;;;4.00;;
36221;SDS011;22266;52.340;4.962;2022-11-27T05:24:11;2.00;;;2.00;;
36221;SDS011;22266;52.340;4.962;2022-11-27T05:26:38;5.50;;;4.50;;
36221;SDS011;22266;52.340;4.962;2022-11-27T05:29:06;3.50;;;3.50;;
36221;SDS011;22266;52.340;4.962;2022-11-27T05:31:33;4.25;;;3.50;;
36221;SDS011;22266;52.340;4.962;2022-11-27T05:34:00;11.00;;;5.00;;
36221;SDS011;22266;52.340;4.962;2022-11-27T05:36:27;2.50;;;2.50;;
36221;SDS011;22266;52.340;4.962;2022-11-27T05:38:54;2.00;;;2.00;;
36221;SDS011;22266;52.340;4.962;2022-11-27T05:41:21;4.50;;;3.00;;
36221;SDS011;22266;52.340;4.962;2022-11-27T05:43:48;5.75;;;5.75;;
36221;SDS011;22266;52.340;4.962;2022-11-27T05:46:16;5.25;;;4.00;;
36221;SDS011;22266;52.340;4.962;2022-11-27T05:48:44;4.00;;;4.00;;
36221;SDS011;22266;52.340;4.962;2022-11-27T05:51:11;4.00;;;4.00;;
36221;SDS011;22266;52.340;4.962;2022-11-27T05:53:38;4.75;;;4.75;;
36221;SDS011;22266;52.340;4.962;2022-11-27T05:56:14;3.50;;;1.00;;
36221;SDS011;22266;52.340;4.962;2022-11-27T05:58:42;4.00;;;4.00;;
36221;SDS011;22266;52.340;4.962;2022-11-27T06:01:10;5.25;;;3.50;;
36221;SDS011;22266;52.340;4.962;2022-11-27T06:03:38;2.75;;;2.75;;
36221;SDS011;22266;52.340;4.962;2022-11-27T06:06:06;4.00;;;4.00;;
36221;SDS011;22266;52.340;4.962;2022-11-27T06:08:35;5.25;;;4.50;;
36221;SDS011;22266;52.340;4.962;2022-11-27T06:11:08;5.00;;;5.00;;
36221;SDS011;22266;52.340;4.962;2022-11-27T06:13:37;5.50;;;5.00;;
36221;SDS011;22266;52.340;4.962;2022-11-27T06:16:07;4.00;;;4.00;;
36221;SDS011;22266;52.340;4.962;2022-11-27T06:18:35;5.25;;;4.00;;
36221;SDS011;22266;52.340;4.962;2022-11-27T06:21:06;2.00;;;2.00;;
36221;SDS011;22266;52.340;4.962;2022-11-27T06:23:33;4.75;;;4.50;;
36221;SDS011;22266;52.340;4.962;2022-11-27T06:26:20;2.00;;;2.00;;
36221;SDS011;22266;52.340;4.962;2022-11-27T06:28:49;6.25;;;3.50;;
36221;SDS011;22266;52.340;4.962;2022-11-27T06:31:17;4.25;;;4.25;;
36221;SDS011;22266;52.340;4.962;2022-11-27T06:33:46;4.75;;;4.00;;
36221;SDS011;22266;52.340;4.962;2022-11-27T06:36:14;5.00;;;4.75;;
36221;SDS011;22266;52.340;4.962;2022-11-27T06:38:41;6.75;;;4.25;;
36221;SDS011;22266;52.340;4.962;2022-11-27T06:41:09;5.50;;;4.00;;
36221;SDS011;22266;52.340;4.962;2022-11-27T06:43:37;1.75;;;1.50;;
36221;SDS011;22266;52.340;4.962;2022-11-27T06:46:05;3.50;;;3.50;;
36221;SDS011;22266;52.340;4.962;2022-11-27T06:48:32;4.25;;;4.25;;
36221;SDS011;22266;52.340;4.962;2022-11-27T06:51:00;4.00;;;2.00;;
36221;SDS011;22266;52.340;4.962;2022-11-27T06:53:28;4.50;;;3.00;;
36221;SDS011;22266;52.340;4.962;2022-11-27T06:55:55;4.00;;;3.00;;
36221;SDS011;22266;52.340;4.962;2022-11-27T06:58:22;4.00;;;3.50;;
36221;SDS011;22266;52.340;4.962;2022-11-27T07:00:59;4.00;;;2.50;;
36221;SDS011;22266;52.340;4.962;2022-11-27T07:03:27;2.50;;;2.00;;
36221;SDS011;22266;52.340;4.962;2022-11-27T07:05:54;3.50;;;3.50;;
36221;SDS011;22266;52.340;4.962;2022-11-27T07:08:20;5.00;;;4.00;;
36221;SDS011;22266;52.340;4.962;2022-11-27T07:10:47;2.00;;;2.00;;
36221;SDS011;22266;52.340;4.962;2022-11-27T07:13:14;6.50;;;5.00;;
36221;SDS011;22266;52.340;4.962;2022-11-27T07:15:40;4.00;;;4.00;;
36221;SDS011;22266;52.340;4.962;2022-11-27T07:18:07;5.00;;;3.00;;
36221;SDS011;22266;52.340;4.962;2022-11-27T07:20:34;3.25;;;2.75;;
36221;SDS011;22266;52.340;4.962;2022-11-27T07:23:00;1.75;;;1.25;;
36221;SDS011;22266;52.340;4.962;2022-11-27T07:25:26;4.25;;;2.00;;
36221;SDS011;22266;52.340;4.962;2022-11-27T07:27:54;2.00;;;2.00;;
36221;SDS011;22266;52.340;4.962;2022-11-27T07:30:20;3.50;;;1.50;;
36221;SDS011;22266;52.340;4.962;2022-11-27T07:32:47;7.50;;;3.00;;
36221;SDS011;22266;52.340;4.962;2022-11-27T07:35:13;5.75;;;2.00;;
36221;SDS011;22266;52.340;4.962;2022-11-27T07:37:39;1.00;;;1.00;;
36221;SDS011;22266;52.340;4.962;2022-11-27T07:40:06;4.00;;;3.00;;
36221;SDS011;22266;52.340;4.962;2022-11-27T07:42:33;4.00;;;4.00;;
36221;SDS011;22266;52.340;4.962;2022-11-27T07:45:05;6.00;;;3.50;;
36221;SDS011;22266;52.340;4.962;2022-11-27T07:47:32;1.25;;;0.75;;
36221;SDS011;22266;52.340;4.962;2022-11-27T07:49:59;5.00;;;5.00;;
36221;SDS011;22266;52.340;4.962;2022-11-27T07:52:25;3.00;;;1.75;;
36221;SDS011;22266;52.340;4.962;2022-11-27T07:54:52;4.25;;;2.00;;
36221;SDS011;22266;52.340;4.962;2022-11-27T07:57:19;3.00;;;1.75;;
36221;SDS011;22266;52.340;4.962;2022-11-27T07:59:45;2.00;;;1.00;;
36221;SDS011;22266;52.340;4.962;2022-11-27T08:02:13;2.00;;;2.00;;
36221;SDS011;22266;52.340;4.962;2022-11-27T08:04:40;5.25;;;4.00;;
36221;SDS011;22266;52.340;4.962;2022-11-27T08:07:07;1.00;;;1.00;;
36221;SDS011;22266;52.340;4.962;2022-11-27T08:09:33;2.00;;;2.00;;
36221;SDS011;22266;52.340;4.962;2022-11-27T08:12:00;1.75;;;1.50;;
36221;SDS011;22266;52.340;4.962;2022-11-27T08:14:26;5.75;;;3.50;;
36221;SDS011;22266;52.340;4.962;2022-11-27T08:16:52;4.25;;;3.50;;
36221;SDS011;22266;52.340;4.962;2022-11-27T08:19:19;2.00;;;2.00;;
36221;SDS011;22266;52.340;4.962;2022-11-27T08:21:45;4.00;;;4.00;;
36221;SDS011;22266;52.340;4.962;2022-11-27T08:24:12;4.25;;;1.25;;
36221;SDS011;22266;52.340;4.962;2022-11-27T08:26:38;9.75;;;4.00;;
36221;SDS011;22266;52.340;4.962;2022-11-27T08:29:05;6.00;;;2.00;;
36221;SDS011;22266;52.340;4.962;2022-11-27T08:31:32;2.00;;;2.00;;
36221;SDS011;22266;52.340;4.962;2022-11-27T08:33:59;2.50;;;2.50;;
36221;SDS011;22266;52.340;4.962;2022-11-27T08:36:25;4.00;;;1.00;;
36221;SDS011;22266;52.340;4.962;2022-11-27T08:38:52;4.00;;;4.00;;
36221;SDS011;22266;52.340;4.962;2022-11-27T08:41:19;4.75;;;3.50;;
36221;SDS011;22266;52.340;4.962;2022-11-27T08:43:46;4.00;;;4.00;;
36221;SDS011;22266;52.340;4.962;2022-11-27T08:46:12;4.00;;;4.00;;
36221;SDS011;22266;52.340;4.962;2022-11-27T08:48:39;5.25;;;4.25;;
36221;SDS011;22266;52.340;4.962;2022-11-27T08:51:07;4.00;;;4.00;;
36221;SDS011;22266;52.340;4.962;2022-11-27T08:53:36;2.50;;;2.50;;
36221;SDS011;22266;52.340;4.962;2022-11-27T08:56:10;4.25;;;4.25;;
36221;SDS011;22266;52.340;4.962;2022-11-27T08:58:41;2.00;;;2.00;;
36221;SDS011;22266;52.340;4.962;2022-11-27T09:01:09;4.75;;;4.00;;
36221;SDS011;22266;52.340;4.962;2022-11-27T09:03:37;1.75;;;1.75;;
36221;SDS011;22266;52.340;4.962;2022-11-27T09:06:08;4.00;;;2.00;;
36221;SDS011;22266;52.340;4.962;2022-11-27T09:08:36;4.25;;;4.25;;
36221;SDS011;22266;52.340;4.962;2022-11-27T09:11:07;4.50;;;4.00;;
36221;SDS011;22266;52.340;4.962;2022-11-27T09:13:35;4.50;;;2.00;;
36221;SDS011;22266;52.340;4.962;2022-11-27T09:16:06;2.00;;;2.00;;
36221;SDS011;22266;52.340;4.962;2022-11-27T09:18:34;3.75;;;3.50;;
36221;SDS011;22266;52.340;4.962;2022-11-27T09:21:03;4.75;;;4.00;;
36221;SDS011;22266;52.340;4.962;2022-11-27T09:23:32;7.50;;;4.25;;
36221;SDS011;22266;52.340;4.962;2022-11-27T09:26:00;5.00;;;2.00;;
36221;SDS011;22266;52.340;4.962;2022-11-27T09:28:28;9.25;;;6.50;;
36221;SDS011;22266;52.340;4.962;2022-11-27T09:30:57;4.00;;;4.00;;
36221;SDS011;22266;52.340;4.962;2022-11-27T09:33:26;8.50;;;5.50;;
36221;SDS011;22266;52.340;4.962;2022-11-27T09:35:54;4.25;;;4.25;;
36221;SDS011;22266;52.340;4.962;2022-11-27T09:38:20;4.75;;;4.75;;
36221;SDS011;22266;52.340;4.962;2022-11-27T09:40:49;6.00;;;1.50;;
36221;SDS011;22266;52.340;4.962;2022-11-27T09:43:19;4.00;;;3.00;;
36221;SDS011;22266;52.340;4.962;2022-11-27T09:45:55;4.50;;;4.00;;
36221;SDS011;22266;52.340;4.962;2022-11-27T09:48:39;3.50;;;3.50;;
36221;SDS011;22266;52.340;4.962;2022-11-27T09:51:13;8.75;;;7.50;;
36221;SDS011;22266;52.340;4.962;2022-11-27T09:53:51;5.00;;;4.50;;
36221;SDS011;22266;52.340;4.962;2022-11-27T09:56:29;10.00;;;5.00;;
36221;SDS011;22266;52.340;4.962;2022-11-27T09:59:00;7.00;;;7.00;;
36221;SDS011;22266;52.340;4.962;2022-11-27T10:01:29;5.50;;;5.50;;
36221;SDS011;22266;52.340;4.962;2022-11-27T10:04:11;9.50;;;7.00;;
36221;SDS011;22266;52.340;4.962;2022-11-27T10:12:28;11.00;;;9.25;;
36221;SDS011;22266;52.340;4.962;2022-11-27T10:18:04;7.00;;;6.25;;
36221;SDS011;22266;52.340;4.962;2022-11-27T10:20:41;5.00;;;4.00;;
36221;SDS011;22266;52.340;4.962;2022-11-27T10:25:57;8.75;;;6.50;;
36221;SDS011;22266;52.340;4.962;2022-11-27T10:33:46;8.25;;;7.50;;
36221;SDS011;22266;52.340;4.962;2022-11-27T10:36:25;8.25;;;5.00;;
36221;SDS011;22266;52.340;4.962;2022-11-27T10:38:55;6.50;;;6.50;;
36221;SDS011;22266;52.340;4.962;2022-11-27T10:41:36;5.00;;;4.75;;
36221;SDS011;22266;52.340;4.962;2022-11-27T10:44:58;9.00;;;5.75;;
36221;SDS011;22266;52.340;4.962;2022-11-27T10:47:09;12.00;;;5.00;;
36221;SDS011;22266;52.340;4.962;2022-11-27T10:49:39;4.25;;;4.25;;
36221;SDS011;22266;52.340;4.962;2022-11-27T10:52:15;6.00;;;6.00;;
36221;SDS011;22266;52.340;4.962;2022-11-27T10:54:45;7.25;;;6.00;;
36221;SDS011;22266;52.340;4.962;2022-11-27T10:57:23;7.00;;;6.00;;
36221;SDS011;22266;52.340;4.962;2022-11-27T11:02:40;4.25;;;4.25;;
36221;SDS011;22266;52.340;4.962;2022-11-27T11:05:10;8.00;;;7.75;;
36221;SDS011;22266;52.340;4.962;2022-11-27T11:08:18;9.00;;;8.75;;
36221;SDS011;22266;52.340;4.962;2022-11-27T11:10:50;6.50;;;5.00;;
36221;SDS011;22266;52.340;4.962;2022-11-27T11:13:20;5.00;;;4.50;;
36221;SDS011;22266;52.340;4.962;2022-11-27T11:18:18;6.25;;;5.75;;
36221;SDS011;22266;52.340;4.962;2022-11-27T11:20:48;6.00;;;5.25;;
36221;SDS011;22266;52.340;4.962;2022-11-27T11:23:21;5.50;;;5.00;;
36221;SDS011;22266;52.340;4.962;2022-11-27T11:25:51;10.00;;;9.50;;
36221;SDS011;22266;52.340;4.962;2022-11-27T11:28:21;4.75;;;4.75;;
36221;SDS011;22266;52.340;4.962;2022-11-27T11:31:02;5.00;;;4.00;;
36221;SDS011;22266;52.340;4.962;2022-11-27T11:33:35;8.00;;;7.00;;
36221;SDS011;22266;52.340;4.962;2022-11-27T11:36:13;7.50;;;4.75;;
36221;SDS011;22266;52.340;4.962;2022-11-27T11:38:41;4.00;;;4.00;;
36221;SDS011;22266;52.340;4.962;2022-11-27T11:41:11;8.25;;;7.00;;
36221;SDS011;22266;52.340;4.962;2022-11-27T11:43:38;6.50;;;4.25;;
36221;SDS011;22266;52.340;4.962;2022-11-27T11:46:06;6.00;;;5.75;;
36221;SDS011;22266;52.340;4.962;2022-11-27T11:48:57;8.75;;;7.50;;
36221;SDS011;22266;52.340;4.962;2022-11-27T12:00:48;10.00;;;9.00;;
36221;SDS011;22266;52.340;4.962;2022-11-27T12:03:50;8.50;;;5.00;;
36221;SDS011;22266;52.340;4.962;2022-11-27T12:09:23;4.00;;;3.50;;
36221;SDS011;22266;52.340;4.962;2022-11-27T12:12:04;5.50;;;5.50;;
36221;SDS011;22266;52.340;4.962;2022-11-27T12:14:48;8.50;;;7.00;;
36221;SDS011;22266;52.340;4.962;2022-11-27T12:25:28;8.00;;;7.00;;
36221;SDS011;22266;52.340;4.962;2022-11-27T12:28:15;4.00;;;4.00;;
36221;SDS011;22266;52.340;4.962;2022-11-27T12:33:34;12.50;;;9.50;;
36221;SDS011;22266;52.340;4.962;2022-11-27T12:36:17;11.75;;;9.00;;
36221;SDS011;22266;52.340;4.962;2022-11-27T12:44:17;10.50;;;9.00;;
36221;SDS011;22266;52.340;4.962;2022-11-27T12:46:55;12.25;;;10.75;;
36221;SDS011;22266;52.340;4.962;2022-11-27T12:49:28;10.75;;;10.75;;
36221;SDS011;22266;52.340;4.962;2022-11-27T12:54:47;8.50;;;5.25;;
36221;SDS011;22266;52.340;4.962;2022-11-27T12:57:29;9.00;;;8.00;;
36221;SDS011;22266;52.340;4.962;2022-11-27T13:00:06;10.00;;;7.25;;
36221;SDS011;22266;52.340;4.962;2022-11-27T13:05:51;8.00;;;8.00;;
36221;SDS011;22266;52.340;4.962;2022-11-27T13:08:28;8.50;;;5.50;;
36221;SDS011;22266;52.340;4.962;2022-11-27T13:11:07;10.00;;;7.00;;
36221;SDS011;22266;52.340;4.962;2022-11-27T13:13:45;8.00;;;7.75;;
36221;SDS011;22266;52.340;4.962;2022-11-27T13:16:18;8.25;;;6.50;;
36221;SDS011;22266;52.340;4.962;2022-11-27T13:18:51;8.00;;;8.00;;
36221;SDS011;22266;52.340;4.962;2022-11-27T13:21:26;5.75;;;5.50;;
36221;SDS011;22266;52.340;4.962;2022-11-27T13:23:58;11.25;;;8.75;;
36221;SDS011;22266;52.340;4.962;2022-11-27T13:26:34;8.00;;;7.50;;
36221;SDS011;22266;52.340;4.962;2022-11-27T13:29:12;4.25;;;4.00;;
36221;SDS011;22266;52.340;4.962;2022-11-27T13:31:45;6.50;;;6.25;;
36221;SDS011;22266;52.340;4.962;2022-11-27T13:34:19;12.50;;;10.25;;
36221;SDS011;22266;52.340;4.962;2022-11-27T13:39:32;9.25;;;7.50;;
36221;SDS011;22266;52.340;4.962;2022-11-27T13:42:03;4.75;;;4.75;;
36221;SDS011;22266;52.340;4.962;2022-11-27T13:44:43;8.75;;;8.00;;
36221;SDS011;22266;52.340;4.962;2022-11-27T13:47:18;5.75;;;4.75;;
36221;SDS011;22266;52.340;4.962;2022-11-27T13:49:57;10.50;;;10.50;;
36221;SDS011;22266;52.340;4.962;2022-11-27T13:52:27;7.50;;;6.00;;
36221;SDS011;22266;52.340;4.962;2022-11-27T13:54:58;10.00;;;8.00;;
36221;SDS011;22266;52.340;4.962;2022-11-27T13:57:27;9.75;;;8.75;;
36221;SDS011;22266;52.340;4.962;2022-11-27T14:00:05;6.00;;;4.25;;
36221;SDS011;22266;52.340;4.962;2022-11-27T14:02:41;6.25;;;4.00;;
36221;SDS011;22266;52.340;4.962;2022-11-27T14:05:13;6.25;;;5.25;;
36221;SDS011;22266;52.340;4.962;2022-11-27T14:07:45;8.25;;;7.00;;
36221;SDS011;22266;52.340;4.962;2022-11-27T14:10:19;9.75;;;9.75;;
36221;SDS011;22266;52.340;4.962;2022-11-27T14:13:01;9.75;;;6.00;;
36221;SDS011;22266;52.340;4.962;2022-11-27T14:15:30;5.00;;;5.00;;
36221;SDS011;22266;52.340;4.962;2022-11-27T14:18:12;5.00;;;5.00;;
36221;SDS011;22266;52.340;4.962;2022-11-27T14:20:49;5.00;;;5.00;;
36221;SDS011;22266;52.340;4.962;2022-11-27T14:23:28;11.75;;;7.75;;
36221;SDS011;22266;52.340;4.962;2022-11-27T14:28:41;7.25;;;7.25;;
36221;SDS011;22266;52.340;4.962;2022-11-27T14:34:01;16.50;;;9.75;;
36221;SDS011;22266;52.340;4.962;2022-11-27T14:36:49;8.00;;;8.00;;
36221;SDS011;22266;52.340;4.962;2022-11-27T14:39:21;12.00;;;8.00;;
36221;SDS011;22266;52.340;4.962;2022-11-27T14:42:23;12.25;;;6.25;;
36221;SDS011;22266;52.340;4.962;2022-11-27T14:45:03;14.75;;;11.00;;
36221;SDS011;22266;52.340;4.962;2022-11-27T14:47:32;9.00;;;8.00;;
36221;SDS011;22266;52.340;4.962;2022-11-27T14:49:59;7.75;;;5.25;;
36221;SDS011;22266;52.340;4.962;2022-11-27T14:52:26;8.75;;;6.50;;
36221;SDS011;22266;52.340;4.962;2022-11-27T14:54:53;10.00;;;8.25;;
36221;SDS011;22266;52.340;4.962;2022-11-27T14:57:24;8.00;;;7.75;;
36221;SDS011;22266;52.340;4.962;2022-11-27T15:02:49;9.50;;;9.50;;
36221;SDS011;22266;52.340;4.962;2022-11-27T15:05:17;9.00;;;7.00;;
36221;SDS011;22266;52.340;4.962;2022-11-27T15:07:44;13.50;;;13.00;;
36221;SDS011;22266;52.340;4.962;2022-11-27T15:10:20;4.75;;;4.50;;
36221;SDS011;22266;52.340;4.962;2022-11-27T15:12:52;12.00;;;9.00;;
36221;SDS011;22266;52.340;4.962;2022-11-27T15:15:19;11.25;;;10.25;;
36221;SDS011;22266;52.340;4.962;2022-11-27T15:17:50;8.00;;;7.00;;
36221;SDS011;22266;52.340;4.962;2022-11-27T15:20:54;10.75;;;10.00;;
36221;SDS011;22266;52.340;4.962;2022-11-27T15:23:18;10.25;;;8.00;;
36221;SDS011;22266;52.340;4.962;2022-11-27T15:25:47;14.00;;;13.50;;
36221;SDS011;22266;52.340;4.962;2022-11-27T15:30:54;11.75;;;11.75;;
36221;SDS011;22266;52.340;4.962;2022-11-27T15:33:31;13.75;;;11.50;;
36221;SDS011;22266;52.340;4.962;2022-11-27T15:36:11;12.25;;;12.00;;
36221;SDS011;22266;52.340;4.962;2022-11-27T15:38:41;14.50;;;12.75;;
36221;SDS011;22266;52.340;4.962;2022-11-27T15:41:24;18.75;;;16.00;;
36221;SDS011;22266;52.340;4.962;2022-11-27T15:43:53;14.00;;;11.75;;
36221;SDS011;22266;52.340;4.962;2022-11-27T15:46:24;13.00;;;13.00;;
36221;SDS011;22266;52.340;4.962;2022-11-27T15:48:52;12.50;;;11.00;;
36221;SDS011;22266;52.340;4.962;2022-11-27T15:51:19;14.00;;;12.00;;
36221;SDS011;22266;52.340;4.962;2022-11-27T15:53:45;14.50;;;11.25;;
36221;SDS011;22266;52.340;4.962;2022-11-27T15:56:13;12.75;;;12.75;;
36221;SDS011;22266;52.340;4.962;2022-11-27T15:58:41;9.75;;;9.00;;
36221;SDS011;22266;52.340;4.962;2022-11-27T16:01:08;16.25;;;13.00;;
36221;SDS011;22266;52.340;4.962;2022-11-27T16:03:35;15.50;;;12.00;;
36221;SDS011;22266;52.340;4.962;2022-11-27T16:06:03;14.25;;;13.50;;
36221;SDS011;22266;52.340;4.962;2022-11-27T16:08:30;9.75;;;9.75;;
36221;SDS011;22266;52.340;4.962;2022-11-27T16:11:01;17.00;;;13.50;;
36221;SDS011;22266;52.340;4.962;2022-11-27T16:13:33;18.25;;;13.75;;
36221;SDS011;22266;52.340;4.962;2022-11-27T16:16:00;11.25;;;9.00;;
36221;SDS011;22266;52.340;4.962;2022-11-27T16:18:28;12.50;;;12.00;;
36221;SDS011;22266;52.340;4.962;2022-11-27T16:21:00;9.50;;;9.50;;
36221;SDS011;22266;52.340;4.962;2022-11-27T16:23:28;15.50;;;13.00;;
36221;SDS011;22266;52.340;4.962;2022-11-27T16:25:54;17.75;;;13.25;;
36221;SDS011;22266;52.340;4.962;2022-11-27T16:28:21;11.50;;;8.25;;
36221;SDS011;22266;52.340;4.962;2022-11-27T16:30:48;16.50;;;14.50;;
36221;SDS011;22266;52.340;4.962;2022-11-27T16:33:14;9.50;;;9.50;;
36221;SDS011;22266;52.340;4.962;2022-11-27T16:35:41;11.75;;;8.75;;
36221;SDS011;22266;52.340;4.962;2022-11-27T16:38:08;17.00;;;14.50;;
36221;SDS011;22266;52.340;4.962;2022-11-27T16:40:34;15.75;;;13.75;;
36221;SDS011;22266;52.340;4.962;2022-11-27T16:43:01;16.00;;;13.00;;
36221;SDS011;22266;52.340;4.962;2022-11-27T16:45:27;15.25;;;11.25;;
36221;SDS011;22266;52.340;4.962;2022-11-27T16:47:54;13.50;;;12.25;;
36221;SDS011;22266;52.340;4.962;2022-11-27T16:50:21;15.00;;;15.00;;
36221;SDS011;22266;52.340;4.962;2022-11-27T16:52:48;17.00;;;13.25;;
36221;SDS011;22266;52.340;4.962;2022-11-27T16:55:21;17.75;;;12.75;;